Time;durP1;ratioP1;P1;durP2;ratioP2;P2;SDS_P1;SDS_P2;PMS_P1;PMS_P2;Temp;Humidity;BMP_temperature;BMP_pressure;BME280_temperature;BME280_humidity;BME280_pressure;Samples;Min_cycle;Max_cycle;Signal;HPM_P1;HPM_P2
2020/12/08 00:02:16;;;;;;;3.13;2.05;;;153.70;1996.80;;;;;;5072883;28;20052;-64
2020/12/08 00:04:42;;;;;;;3.05;2.50;;;153.60;1996.80;;;;;;5072789;28;20489;-63
2020/12/08 00:07:09;;;;;;;3.95;2.22;;;153.60;1996.80;;;;;;5071632;28;20024;-63
2020/12/08 00:09:35;;;;;;;3.47;2.58;;;153.60;2022.40;;;;;;5073155;28;20112;-63
2020/12/08 00:12:00;;;;;;;2.97;2.15;;;153.70;1996.80;;;;;;5072002;28;20099;-62
2020/12/08 00:14:26;;;;;;;3.67;2.78;;;153.70;1996.80;;;;;;5072943;28;20120;-63
2020/12/08 00:16:52;;;;;;;4.30;2.80;;;128.90;1996.80;;;;;;5072341;28;20024;-63
2020/12/08 00:19:18;;;;;;;3.90;2.30;;;128.90;2022.40;;;;;;5072883;28;20066;-62
2020/12/08 00:21:45;;;;;;;3.70;2.30;;;128.90;1996.80;;;;;;5072839;28;20108;-62
2020/12/08 00:24:12;;;;;;;5.28;2.40;;;128.90;1996.80;;;;;;5072756;28;20051;-63
2020/12/08 00:26:39;;;;;;;2.53;2.00;;;128.90;1996.80;;;;;;5072626;28;20029;-62
2020/12/08 00:29:11;;;;;;;3.70;2.13;;;128.70;2022.40;;;;;;5072985;28;20055;-63
2020/12/08 00:31:37;;;;;;;3.15;2.13;;;128.60;2048.00;;;;;;5072830;28;20020;-63
2020/12/08 00:34:04;;;;;;;3.78;2.25;;;128.60;2048.00;;;;;;5072340;28;20028;-64
2020/12/08 00:36:30;;;;;;;3.58;2.28;;;128.70;2048.00;;;;;;5072775;28;20043;-63
2020/12/08 00:38:56;;;;;;;4.13;2.22;;;128.80;2022.40;;;;;;5072959;28;20017;-64
2020/12/08 00:41:22;;;;;;;4.15;2.70;;;128.60;2048.00;;;;;;5072109;28;20494;-59
2020/12/08 00:43:49;;;;;;;3.70;2.50;;;128.70;2022.40;;;;;;5069326;28;20036;-64
2020/12/08 00:46:19;;;;;;;3.00;2.42;;;128.60;2048.00;;;;;;5071453;28;20043;-63
2020/12/08 00:48:46;;;;;;;4.55;3.10;;;128.70;2048.00;;;;;;5073059;28;20031;-64
2020/12/08 00:51:11;;;;;;;5.47;2.95;;;128.60;2048.00;;;;;;5072695;28;20021;-58
2020/12/08 00:53:40;;;;;;;5.25;3.10;;;128.40;2099.20;;;;;;5071304;28;20352;-57
2020/12/08 00:56:11;;;;;;;5.47;2.97;;;128.60;2099.20;;;;;;5053835;28;20060;-57
2020/12/08 00:58:37;;;;;;;3.67;2.70;;;128.60;2099.20;;;;;;5072752;28;20110;-57
2020/12/08 01:01:07;;;;;;;3.20;2.33;;;128.70;2124.80;;;;;;5072450;28;20083;-64
2020/12/08 01:03:36;;;;;;;3.08;2.65;;;128.70;2048.00;;;;;;5072979;28;20013;-63
2020/12/08 01:06:03;;;;;;;2.92;1.98;;;128.60;2048.00;;;;;;5072317;28;20048;-65
2020/12/08 01:08:30;;;;;;;1.95;1.55;;;128.60;2048.00;;;;;;5072464;28;20105;-62
2020/12/08 01:10:56;;;;;;;2.53;1.80;;;128.60;2022.40;;;;;;5072811;28;20025;-65
2020/12/08 01:13:22;;;;;;;3.20;2.10;;;128.40;2022.40;;;;;;5072613;28;20104;-65
2020/12/08 01:15:48;;;;;;;2.92;1.77;;;128.40;2048.00;;;;;;5054228;28;20115;-62
2020/12/08 01:18:14;;;;;;;2.28;1.60;;;128.60;2022.40;;;;;;5072462;28;20024;-65
2020/12/08 01:20:40;;;;;;;2.80;1.60;;;128.30;2048.00;;;;;;5072159;28;20029;-67
2020/12/08 01:23:06;;;;;;;3.63;1.67;;;128.30;2048.00;;;;;;5072520;28;20027;-64
2020/12/08 01:25:32;;;;;;;2.38;1.63;;;128.30;2022.40;;;;;;5072205;28;20534;-65
2020/12/08 01:27:59;;;;;;;1.92;1.50;;;128.20;2048.00;;;;;;5072467;28;20454;-65
2020/12/08 01:30:25;;;;;;;3.05;1.88;;;128.20;2022.40;;;;;;5072067;28;20092;-63
2020/12/08 01:32:52;;;;;;;2.88;1.80;;;128.20;2048.00;;;;;;5054386;28;20413;-65
2020/12/08 01:35:18;;;;;;;2.70;1.70;;;128.10;2048.00;;;;;;5070641;28;20020;-63
2020/12/08 01:37:47;;;;;;;2.10;1.60;;;128.00;2073.60;;;;;;5068537;28;20367;-63
2020/12/08 01:40:13;;;;;;;2.72;1.65;;;128.00;2073.60;;;;;;5072230;28;20021;-65
2020/12/08 01:42:39;;;;;;;1.98;1.73;;;103.20;2073.60;;;;;;5071987;28;20077;-64
2020/12/08 01:45:06;;;;;;;2.42;1.80;;;103.20;2073.60;;;;;;5072141;28;20551;-66
2020/12/08 01:47:33;;;;;;;2.28;1.65;;;103.20;2073.60;;;;;;5072308;28;20059;-65
2020/12/08 01:49:59;;;;;;;2.10;1.70;;;103.20;2073.60;;;;;;5072144;28;20028;-65
2020/12/08 01:52:26;;;;;;;1.85;1.55;;;103.20;2073.60;;;;;;5072166;28;20017;-65
2020/12/08 01:54:53;;;;;;;2.40;1.83;;;103.10;2073.60;;;;;;5072652;28;20158;-63
2020/12/08 01:57:19;;;;;;;2.75;1.73;;;103.10;2099.20;;;;;;5071560;28;20031;-64
2020/12/08 01:59:44;;;;;;;2.55;1.88;;;103.10;2073.60;;;;;;5071793;28;20104;-65
2020/12/08 02:02:10;;;;;;;2.92;2.35;;;103.20;2073.60;;;;;;5071883;28;20055;-65
2020/12/08 02:04:37;;;;;;;2.80;2.22;;;103.20;2073.60;;;;;;5071878;28;20052;-64
2020/12/08 02:07:03;;;;;;;2.72;1.95;;;103.20;2099.20;;;;;;5071838;28;20033;-61
2020/12/08 02:09:29;;;;;;;2.88;1.50;;;103.10;2073.60;;;;;;5071883;28;20111;-64
2020/12/08 02:11:55;;;;;;;1.85;1.50;;;103.00;2099.20;;;;;;5071600;28;20103;-65
2020/12/08 02:14:20;;;;;;;1.92;1.67;;;103.10;2073.60;;;;;;5071798;28;20024;-65
2020/12/08 02:16:46;;;;;;;2.13;1.77;;;103.00;2099.20;;;;;;5071848;28;20399;-66
2020/12/08 02:19:12;;;;;;;1.73;1.55;;;103.00;2099.20;;;;;;5071858;28;20032;-65
2020/12/08 02:21:37;;;;;;;3.17;1.40;;;103.00;2073.60;;;;;;5071637;28;20111;-65
2020/12/08 02:24:03;;;;;;;2.80;1.65;;;103.00;2073.60;;;;;;5071996;28;20142;-65
2020/12/08 02:26:29;;;;;;;2.33;1.50;;;103.00;2073.60;;;;;;5070535;28;20530;-65
2020/12/08 02:28:55;;;;;;;2.72;1.70;;;103.00;2073.60;;;;;;5071870;28;20120;-63
2020/12/08 02:31:22;;;;;;;1.88;1.13;;;102.90;2099.20;;;;;;5074272;28;20056;-66
2020/12/08 02:33:48;;;;;;;2.17;1.42;;;102.90;2073.60;;;;;;5075629;28;20020;-66
2020/12/08 02:36:13;;;;;;;3.25;1.40;;;102.90;2073.60;;;;;;5075553;28;20032;-62
2020/12/08 02:38:39;;;;;;;1.40;1.08;;;102.90;2073.60;;;;;;5075657;28;20032;-59
2020/12/08 02:41:05;;;;;;;2.78;1.17;;;102.90;2073.60;;;;;;5061242;28;20108;-66
2020/12/08 02:43:31;;;;;;;1.50;1.10;;;102.90;2073.60;;;;;;5075474;28;20025;-66
2020/12/08 02:46:00;;;;;;;2.30;1.10;;;103.00;2073.60;;;;;;5075071;28;20487;-57
2020/12/08 02:48:26;;;;;;;4.25;1.65;;;102.90;2048.00;;;;;;5075539;28;20016;-65
2020/12/08 02:50:51;;;;;;;2.10;1.33;;;102.90;2073.60;;;;;;5074782;28;20032;-65
2020/12/08 02:53:17;;;;;;;1.38;1.20;;;102.90;2073.60;;;;;;5075523;28;20020;-66
2020/12/08 02:55:47;;;;;;;2.05;1.13;;;102.90;2048.00;;;;;;5056930;28;20505;-66
2020/12/08 02:58:13;;;;;;;2.38;1.25;;;102.90;2048.00;;;;;;5075334;28;20020;-66
2020/12/08 03:00:39;;;;;;;2.25;1.52;;;102.90;2048.00;;;;;;5074594;28;20058;-65
2020/12/08 03:03:04;;;;;;;2.58;1.17;;;102.90;2048.00;;;;;;5074947;28;20050;-66
2020/12/08 03:05:30;;;;;;;2.50;1.50;;;102.80;2073.60;;;;;;5074963;28;20052;-65
2020/12/08 03:07:55;;;;;;;1.65;1.10;;;102.90;2073.60;;;;;;5074804;28;20020;-66
2020/12/08 03:10:21;;;;;;;2.30;1.20;;;102.80;2073.60;;;;;;5074798;28;20036;-66
2020/12/08 03:12:47;;;;;;;3.10;1.42;;;102.80;2073.60;;;;;;5074897;28;20078;-66
2020/12/08 03:15:12;;;;;;;1.98;1.35;;;102.90;2048.00;;;;;;5075139;28;20078;-66
2020/12/08 03:17:38;;;;;;;1.92;1.42;;;102.90;2073.60;;;;;;5074681;28;20102;-62
2020/12/08 03:20:04;;;;;;;1.58;1.20;;;102.90;2048.00;;;;;;5056414;28;20054;-66
2020/12/08 03:22:30;;;;;;;2.03;1.40;;;102.90;2048.00;;;;;;5074722;28;20356;-63
2020/12/08 03:24:55;;;;;;;2.30;1.20;;;102.80;2048.00;;;;;;5074615;28;20031;-63
2020/12/08 03:27:21;;;;;;;2.08;1.42;;;102.80;2073.60;;;;;;5074463;28;20116;-65
2020/12/08 03:29:47;;;;;;;2.22;1.35;;;102.80;2048.00;;;;;;5074518;28;20071;-66
2020/12/08 03:32:12;;;;;;;3.03;1.38;;;102.90;2048.00;;;;;;5074767;28;20474;-66
2020/12/08 03:34:38;;;;;;;1.67;1.35;;;102.80;2048.00;;;;;;5073348;28;20064;-66
2020/12/08 03:37:04;;;;;;;2.42;1.40;;;102.80;2048.00;;;;;;5074224;28;20082;-62
2020/12/08 03:39:30;;;;;;;2.30;1.35;;;102.80;2048.00;;;;;;5074238;28;20028;-66
2020/12/08 03:41:59;;;;;;;2.58;1.45;;;102.70;2073.60;;;;;;5072370;28;20033;-67
2020/12/08 03:44:28;;;;;;;1.88;1.13;;;102.50;2073.60;;;;;;5073864;28;20021;-65
2020/12/08 03:46:59;;;;;;;1.30;1.20;;;102.70;2073.60;;;;;;5073747;28;20036;-65
2020/12/08 03:49:28;;;;;;;2.55;1.35;;;102.60;2073.60;;;;;;5070749;28;20035;-66
2020/12/08 03:51:57;;;;;;;1.40;1.02;;;102.70;2073.60;;;;;;5073544;28;20048;-65
2020/12/08 03:54:23;;;;;;;1.75;1.40;;;102.70;2073.60;;;;;;5073986;28;20027;-66
2020/12/08 03:56:49;;;;;;;2.22;1.75;;;102.60;2073.60;;;;;;5073277;28;20386;-66
2020/12/08 03:59:18;;;;;;;2.53;1.35;;;102.70;2048.00;;;;;;5073597;28;20530;-65
2020/12/08 04:01:47;;;;;;;2.95;1.65;;;102.70;2073.60;;;;;;5073454;28;20028;-66
2020/12/08 04:04:14;;;;;;;2.38;1.60;;;102.60;2073.60;;;;;;5073523;28;20055;-66
2020/12/08 04:06:40;;;;;;;3.28;1.95;;;102.70;2073.60;;;;;;5073070;28;20037;-66
2020/12/08 04:09:06;;;;;;;2.53;1.73;;;102.70;2048.00;;;;;;5073347;28;20028;-66
2020/12/08 04:11:33;;;;;;;2.10;1.65;;;102.70;2048.00;;;;;;5072880;28;20074;-67
2020/12/08 04:14:03;;;;;;;1.70;1.60;;;102.70;2048.00;;;;;;5073241;28;20517;-67
2020/12/08 04:16:30;;;;;;;3.55;1.50;;;102.70;2048.00;;;;;;5073181;28;20017;-65
2020/12/08 04:18:55;;;;;;;2.22;1.60;;;102.70;2048.00;;;;;;5073452;28;20453;-64
2020/12/08 04:21:26;;;;;;;2.05;1.50;;;102.70;2048.00;;;;;;5073447;28;20104;-65
2020/12/08 04:23:54;;;;;;;3.03;1.80;;;102.70;2048.00;;;;;;5073768;28;20111;-66
2020/12/08 04:26:21;;;;;;;4.45;1.65;;;102.70;2048.00;;;;;;5071887;28;20039;-64
2020/12/08 04:28:47;;;;;;;2.53;1.80;;;102.70;2048.00;;;;;;5073524;28;20078;-67
2020/12/08 04:31:19;;;;;;;2.85;1.90;;;102.60;2073.60;;;;;;5072999;28;20379;-61
2020/12/08 04:33:45;;;;;;;2.88;1.70;;;102.70;2048.00;;;;;;5073790;28;20024;-66
2020/12/08 04:36:16;;;;;;;3.33;1.92;;;102.60;2048.00;;;;;;5073329;28;20036;-66
2020/12/08 04:38:43;;;;;;;2.30;1.50;;;102.70;2048.00;;;;;;5073112;28;20023;-65
2020/12/08 04:41:18;;;;;;;3.08;1.80;;;102.70;2048.00;;;;;;5072983;28;20454;-66
2020/12/08 04:43:44;;;;;;;2.85;1.85;;;102.60;2073.60;;;;;;5073624;28;20025;-61
2020/12/08 04:46:10;;;;;;;3.75;2.35;;;102.60;2048.00;;;;;;5072655;28;20028;-64
2020/12/08 04:48:36;;;;;;;2.60;1.73;;;102.70;2048.00;;;;;;5073046;28;20023;-67
2020/12/08 04:51:03;;;;;;;3.28;1.75;;;102.50;2073.60;;;;;;5070417;28;20020;-64
2020/12/08 04:53:29;;;;;;;2.65;1.90;;;102.50;2048.00;;;;;;5072791;28;20360;-65
2020/12/08 04:55:54;;;;;;;5.20;2.20;;;102.60;2048.00;;;;;;5073106;28;20025;-66
2020/12/08 04:58:20;;;;;;;3.05;1.90;;;102.60;2048.00;;;;;;5072813;28;20028;-63
2020/12/08 05:00:46;;;;;;;2.15;1.75;;;102.60;2048.00;;;;;;5072386;28;20021;-63
2020/12/08 05:03:12;;;;;;;5.10;1.92;;;102.40;2073.60;;;;;;5072894;28;20415;-66
2020/12/08 05:05:39;;;;;;;2.83;1.75;;;102.50;2073.60;;;;;;5072611;28;20101;-65
2020/12/08 05:08:12;;;;;;;3.83;2.38;;;102.60;2073.60;;;;;;5072866;28;20028;-65
2020/12/08 05:10:39;;;;;;;2.60;1.70;;;102.70;2048.00;;;;;;5072786;28;20028;-66
2020/12/08 05:13:14;;;;;;;2.13;1.60;;;102.70;2022.40;;;;;;5072160;28;20222;-64
2020/12/08 05:15:40;;;;;;;2.85;2.00;;;102.60;2048.00;;;;;;5073130;28;20104;-65
2020/12/08 05:18:07;;;;;;;5.75;2.25;;;102.60;2048.00;;;;;;5072518;28;20017;-66
2020/12/08 05:20:33;;;;;;;5.53;3.28;;;102.60;2048.00;;;;;;5072755;28;20020;-65
2020/12/08 05:23:00;;;;;;;4.20;2.30;;;102.60;2048.00;;;;;;5072287;28;20031;-66
2020/12/08 05:25:28;;;;;;;3.97;2.45;;;102.60;2048.00;;;;;;5072500;28;20038;-62
2020/12/08 05:28:00;;;;;;;2.67;2.08;;;102.50;2048.00;;;;;;5072328;28;20017;-65
2020/12/08 05:30:28;;;;;;;6.95;4.47;;;102.50;2048.00;;;;;;5072013;28;20032;-65
2020/12/08 05:32:54;;;;;;;4.75;2.92;;;102.50;2048.00;;;;;;5054393;28;20032;-65
2020/12/08 05:35:22;;;;;;;5.47;3.10;;;102.60;2048.00;;;;;;5072589;28;20032;-64
2020/12/08 05:37:55;;;;;;;4.47;2.50;;;102.60;2048.00;;;;;;5071255;28;20017;-65
2020/12/08 05:40:23;;;;;;;5.47;2.35;;;102.70;2022.40;;;;;;5071570;28;20108;-63
2020/12/08 05:42:51;;;;;;;5.35;2.47;;;102.60;2022.40;;;;;;5072323;28;20382;-65
2020/12/08 05:45:22;;;;;;;7.65;2.67;;;102.70;2022.40;;;;;;5072225;28;20371;-66
2020/12/08 05:47:56;;;;;;;3.05;2.40;;;102.70;2022.40;;;;;;5072441;28;20021;-64
2020/12/08 05:50:23;;;;;;;5.00;2.80;;;102.70;2022.40;;;;;;5058644;28;20032;-64
2020/12/08 05:53:00;;;;;;;2.92;2.38;;;102.70;2022.40;;;;;;5072431;28;20437;-66
2020/12/08 05:55:31;;;;;;;5.07;2.85;;;102.60;2022.40;;;;;;5072739;28;20412;-66
2020/12/08 05:58:09;;;;;;;7.65;2.85;;;102.60;2022.40;;;;;;5071814;28;20545;-62
2020/12/08 06:00:35;;;;;;;6.15;2.95;;;102.60;2022.40;;;;;;5058459;28;20078;-62
2020/12/08 06:03:15;;;;;;;4.70;2.90;;;102.60;2022.40;;;;;;5072351;28;20066;-64
2020/12/08 06:05:46;;;;;;;3.97;2.88;;;102.60;2048.00;;;;;;5073921;28;20044;-62
2020/12/08 06:08:22;;;;;;;6.07;2.88;;;102.60;2022.40;;;;;;5076011;28;20402;-66
2020/12/08 06:10:51;;;;;;;4.82;3.08;;;102.70;2022.40;;;;;;5043852;28;20436;-60
2020/12/08 06:13:23;;;;;;;;;;;102.70;1996.80;;;;;;5076626;28;20108;-63
2020/12/08 06:15:49;;;;;;;11.38;3.42;;;102.80;1996.80;;;;;;5076143;28;19904;-65
2020/12/08 06:18:15;;;;;;;6.18;3.67;;;102.80;1996.80;;;;;;5076043;28;20021;-66
2020/12/08 06:20:41;;;;;;;4.85;3.28;;;102.90;1996.80;;;;;;5075738;28;20020;-60
2020/12/08 06:23:07;;;;;;;3.90;3.00;;;102.80;1996.80;;;;;;5075895;28;20021;-61
2020/12/08 06:25:33;;;;;;;6.45;3.55;;;102.80;1996.80;;;;;;5075670;28;20055;-62
2020/12/08 06:28:01;;;;;;;5.38;3.55;;;102.80;1996.80;;;;;;5075639;28;20046;-64
2020/12/08 06:30:27;;;;;;;5.25;3.30;;;102.80;1996.80;;;;;;5075706;28;20020;-60
2020/12/08 06:32:52;;;;;;;5.43;3.60;;;102.90;1971.20;;;;;;5075681;28;20112;-64
2020/12/08 06:35:19;;;;;;;4.32;2.95;;;103.00;1945.60;;;;;;5075805;28;20501;-64
2020/12/08 06:37:47;;;;;;;4.25;2.95;;;102.90;1945.60;;;;;;5075882;28;20028;-66
2020/12/08 06:40:18;;;;;;;5.60;3.55;;;103.00;1971.20;;;;;;5075233;28;20028;-65
2020/12/08 06:42:47;;;;;;;5.15;3.58;;;103.00;1945.60;;;;;;5075198;28;20117;-66
2020/12/08 06:45:15;;;;;;;6.72;3.78;;;103.10;1945.60;;;;;;5075350;28;20032;-62
2020/12/08 06:47:43;;;;;;;6.13;3.47;;;103.20;1945.60;;;;;;5075047;28;20033;-63
2020/12/08 06:50:27;;;;;;;6.85;3.47;;;103.20;1920.00;;;;;;5075215;28;20285;-65
2020/12/08 06:53:00;;;;;;;6.50;3.67;;;103.30;1920.00;;;;;;5074238;28;20471;-65
2020/12/08 06:55:27;;;;;;;6.53;3.95;;;128.00;1920.00;;;;;;5063516;28;20032;-64
2020/12/08 06:58:02;;;;;;;8.25;4.32;;;128.00;1920.00;;;;;;5074806;28;20028;-65
2020/12/08 07:00:28;;;;;;;9.88;4.30;;;103.20;1894.40;;;;;;5075001;28;20024;-63
2020/12/08 07:02:54;;;;;;;8.23;4.47;;;128.00;1894.40;;;;;;5074811;28;20029;-63
2020/12/08 07:05:31;;;;;;;7.68;4.60;;;128.10;1894.40;;;;;;5074427;28;20494;-60
2020/12/08 07:08:01;;;;;;;7.53;4.32;;;128.20;1894.40;;;;;;5075016;28;20538;-63
2020/12/08 07:10:27;;;;;;;9.65;4.50;;;128.30;1868.80;;;;;;5074545;28;20035;-60
2020/12/08 07:12:54;;;;;;;9.68;4.63;;;128.30;1868.80;;;;;;5074406;28;20088;-64
2020/12/08 07:15:25;;;;;;;10.98;5.78;;;128.30;1868.80;;;;;;5074895;28;20029;-63
2020/12/08 07:18:02;;;;;;;10.82;5.30;;;128.40;1868.80;;;;;;5074459;28;20017;-60
2020/12/08 07:20:28;;;;;;;10.23;4.82;;;128.50;1843.20;;;;;;5074181;28;20017;-63
2020/12/08 07:22:54;;;;;;;11.27;5.05;;;128.70;1843.20;;;;;;5074658;28;20391;-63
2020/12/08 07:25:21;;;;;;;12.45;5.07;;;128.50;1817.60;;;;;;5074876;28;20482;-65
2020/12/08 07:27:49;;;;;;;9.13;4.55;;;128.60;1843.20;;;;;;5074354;28;20095;-62
2020/12/08 07:30:18;;;;;;;9.93;5.13;;;128.60;1843.20;;;;;;5074554;28;20032;-63
2020/12/08 07:32:44;;;;;;;10.57;5.72;;;128.70;1817.60;;;;;;5074116;28;20111;-62
2020/12/08 07:35:21;;;;;;;10.05;4.93;;;128.80;1792.00;;;;;;5073674;28;20459;-65
2020/12/08 07:37:48;;;;;;;7.50;3.88;;;128.90;1792.00;;;;;;5072390;28;20020;-64
2020/12/08 07:40:14;;;;;;;9.13;4.70;;;128.80;1792.00;;;;;;5074479;28;20016;-61
2020/12/08 07:42:52;;;;;;;6.50;4.35;;;128.90;1766.40;;;;;;5073431;28;20475;-61
2020/12/08 07:45:23;;;;;;;8.40;4.10;;;128.80;1766.40;;;;;;5073983;28;20120;-65
2020/12/08 07:47:58;;;;;;;8.27;4.50;;;128.90;1766.40;;;;;;5074569;28;20032;-55
2020/12/08 07:50:29;;;;;;;7.55;4.40;;;128.90;1766.40;;;;;;5072488;28;20500;-61
2020/12/08 07:53:05;;;;;;;6.97;4.22;;;128.90;1766.40;;;;;;5065825;28;20020;-59
2020/12/08 07:55:40;;;;;;;8.38;4.43;;;153.70;1766.40;;;;;;5073234;28;20035;-63
2020/12/08 07:58:06;;;;;;;8.73;4.90;;;128.90;1766.40;;;;;;5056226;28;20027;-63
2020/12/08 08:00:32;;;;;;;9.05;4.88;;;153.70;1766.40;;;;;;5072606;28;20116;-62
2020/12/08 08:02:58;;;;;;;7.90;4.25;;;153.60;1766.40;;;;;;5055952;28;20127;-59
2020/12/08 08:05:24;;;;;;;10.02;4.70;;;153.70;1740.80;;;;;;5073523;28;20542;-62
2020/12/08 08:07:49;;;;;;;8.25;4.85;;;153.80;1740.80;;;;;;5073730;28;20020;-64
2020/12/08 08:10:15;;;;;;;8.15;4.45;;;153.90;1715.20;;;;;;5073172;28;20479;-59
2020/12/08 08:12:41;;;;;;;8.10;5.20;;;154.00;1715.20;;;;;;5072665;28;20017;-61
2020/12/08 08:15:07;;;;;;;7.18;4.20;;;154.00;1715.20;;;;;;5073376;28;20106;-61
2020/12/08 08:17:33;;;;;;;7.40;4.93;;;154.00;1715.20;;;;;;5073693;28;20016;-64
2020/12/08 08:19:59;;;;;;;7.95;4.50;;;154.10;1689.60;;;;;;5055567;28;20048;-62
2020/12/08 08:22:25;;;;;;;10.35;5.50;;;154.00;1715.20;;;;;;5054306;28;20063;-60
2020/12/08 08:24:51;;;;;;;10.07;5.78;;;153.90;1715.20;;;;;;5072215;28;20067;-63
2020/12/08 08:27:17;;;;;;;9.23;5.38;;;154.10;1715.20;;;;;;5053439;28;20032;-63
2020/12/08 08:29:42;;;;;;;8.93;4.93;;;154.20;1689.60;;;;;;5070647;28;20075;-61
2020/12/08 08:32:08;;;;;;;10.35;5.18;;;154.30;1664.00;;;;;;5072190;28;20410;-61
2020/12/08 08:34:34;;;;;;;9.10;5.47;;;154.20;1689.60;;;;;;5071912;28;20067;-63
2020/12/08 08:36:59;;;;;;;9.70;5.20;;;154.30;1689.60;;;;;;5071959;28;20119;-61
2020/12/08 08:39:25;;;;;;;8.07;5.40;;;154.40;1664.00;;;;;;5072912;28;20024;-59
2020/12/08 08:41:52;;;;;;;9.10;5.15;;;154.50;1638.40;;;;;;5072796;28;20031;-59
2020/12/08 08:44:18;;;;;;;11.07;4.75;;;154.40;1664.00;;;;;;5068561;28;20020;-63
2020/12/08 08:46:44;;;;;;;10.85;5.38;;;154.50;1664.00;;;;;;5071454;28;20064;-60
2020/12/08 08:49:16;;;;;;;8.88;5.47;;;179.20;1664.00;;;;;;5072654;28;20450;-57
2020/12/08 08:51:46;;;;;;;10.88;5.38;;;179.30;1664.00;;;;;;5072075;28;20021;-62
2020/12/08 08:54:14;;;;;;;9.38;5.60;;;179.20;1664.00;;;;;;5072687;28;20027;-64
2020/12/08 08:56:39;;;;;;;12.00;5.63;;;179.30;1664.00;;;;;;5072141;28;20009;-64
2020/12/08 08:59:06;;;;;;;9.43;5.47;;;179.40;1638.40;;;;;;5071905;28;20066;-64
2020/12/08 09:01:36;;;;;;;10.10;5.35;;;179.40;1638.40;;;;;;5071404;28;20024;-60
2020/12/08 09:04:02;;;;;;;12.68;6.30;;;179.60;1612.80;;;;;;5072871;28;20526;-62
2020/12/08 09:06:29;;;;;;;11.77;5.90;;;179.60;1638.40;;;;;;5072440;28;20048;-62
2020/12/08 09:08:54;;;;;;;9.25;5.80;;;179.60;1638.40;;;;;;5072682;28;20112;-61
2020/12/08 09:11:20;;;;;;;12.70;6.60;;;179.60;1612.80;;;;;;5072604;28;20060;-61
2020/12/08 09:13:48;;;;;;;13.15;7.25;;;179.70;1612.80;;;;;;5072090;28;20443;-62
2020/12/08 09:16:13;;;;;;;9.27;5.63;;;179.70;1612.80;;;;;;5072143;28;20028;-64
2020/12/08 09:18:39;;;;;;;14.15;7.00;;;179.80;1612.80;;;;;;5072575;28;20476;-63
2020/12/08 09:21:05;;;;;;;12.10;6.18;;;179.80;1612.80;;;;;;5072119;28;20028;-63
2020/12/08 09:23:31;;;;;;;11.27;5.82;;;179.80;1612.80;;;;;;5072611;28;20070;-62
2020/12/08 09:25:58;;;;;;;9.57;5.38;;;179.90;1612.80;;;;;;5072396;28;20111;-62
2020/12/08 09:28:26;;;;;;;8.93;5.68;;;180.00;1612.80;;;;;;5072705;28;20024;-62
2020/12/08 09:30:52;;;;;;;8.80;5.90;;;180.00;1612.80;;;;;;5069086;28;20028;-58
2020/12/08 09:33:18;;;;;;;8.20;6.35;;;180.10;1587.20;;;;;;5067483;28;20029;-58
2020/12/08 09:35:44;;;;;;;11.55;5.90;;;180.00;1587.20;;;;;;5070389;28;20067;-56
2020/12/08 09:38:10;;;;;;;10.95;5.78;;;180.10;1612.80;;;;;;5071265;28;20035;-58
2020/12/08 09:40:36;;;;;;;11.48;6.57;;;180.10;1612.80;;;;;;5069761;28;20130;-57
2020/12/08 09:43:03;;;;;;;10.90;6.43;;;180.10;1612.80;;;;;;5071396;28;20028;-58
2020/12/08 09:45:30;;;;;;;8.63;5.97;;;204.80;1587.20;;;;;;5071974;28;20040;-58
2020/12/08 09:47:56;;;;;;;11.57;6.05;;;205.00;1587.20;;;;;;5072654;28;20092;-57
2020/12/08 09:50:21;;;;;;;8.85;5.70;;;204.90;1587.20;;;;;;5071459;28;20103;-58
2020/12/08 09:52:47;;;;;;;11.40;6.32;;;204.90;1587.20;;;;;;5072131;28;20017;-58
2020/12/08 09:55:13;;;;;;;8.77;5.57;;;204.90;1587.20;;;;;;5072362;28;20024;-59
2020/12/08 09:57:39;;;;;;;12.20;7.35;;;205.00;1587.20;;;;;;5071795;28;20025;-58
2020/12/08 10:00:06;;;;;;;11.65;6.88;;;205.10;1587.20;;;;;;5072266;28;20463;-58
2020/12/08 10:02:32;;;;;;;10.30;6.63;;;205.10;1587.20;;;;;;5070145;28;20390;-57
2020/12/08 10:04:58;;;;;;;12.68;6.60;;;205.20;1587.20;;;;;;5070516;28;20491;-57
2020/12/08 10:07:24;;;;;;;10.45;6.20;;;205.20;1587.20;;;;;;5054081;28;20386;-58
2020/12/08 10:09:50;;;;;;;13.07;7.13;;;205.30;1766.40;;;;;;5069840;28;20067;-56
2020/12/08 10:12:17;;;;;;;9.63;7.05;;;205.30;1587.20;;;;;;5069087;28;20021;-55
2020/12/08 10:14:43;;;;;;;12.90;6.63;;;205.40;1561.60;;;;;;5069465;28;20079;-60
2020/12/08 10:17:12;;;;;;;10.68;6.47;;;205.40;1561.60;;;;;;5070723;28;20020;-58
2020/12/08 10:19:42;;;;;;;9.48;6.07;;;205.40;1587.20;;;;;;5070539;28;20025;-57
2020/12/08 10:22:10;;;;;;;13.57;7.68;;;205.40;1587.20;;;;;;5043693;28;20083;-60
2020/12/08 10:24:36;;;;;;;11.70;7.80;;;205.40;1587.20;;;;;;5064304;28;20021;-57
2020/12/08 10:27:02;;;;;;;11.77;6.78;;;205.40;1587.20;;;;;;5067011;28;20035;-55
2020/12/08 10:29:29;;;;;;;10.93;7.10;;;205.50;1587.20;;;;;;5070442;28;20033;-57
2020/12/08 10:31:55;;;;;;;11.23;6.97;;;205.50;1561.60;;;;;;5070472;28;20039;-55
2020/12/08 10:34:21;;;;;;;9.50;6.75;;;205.50;1561.60;;;;;;5068513;28;20123;-57
2020/12/08 10:36:47;;;;;;;11.65;6.78;;;205.50;1587.20;;;;;;5066798;28;20029;-56
2020/12/08 10:39:14;;;;;;;11.02;7.97;;;205.50;1587.20;;;;;;5067847;28;20150;-56
2020/12/08 10:41:41;;;;;;;10.20;6.72;;;205.50;1587.20;;;;;;5067144;28;20051;-55
2020/12/08 10:44:08;;;;;;;12.18;7.05;;;205.60;1587.20;;;;;;5049689;28;20415;-59
2020/12/08 10:46:37;;;;;;;10.52;6.85;;;205.70;1587.20;;;;;;5068324;28;20033;-59
2020/12/08 10:49:06;;;;;;;11.98;7.93;;;205.60;1587.20;;;;;;5067157;28;20470;-57
2020/12/08 10:51:32;;;;;;;;;;;205.60;1587.20;;;;;;5070878;28;20021;-57
2020/12/08 10:53:58;;;;;;;9.85;6.75;;;230.40;1587.20;;;;;;5072003;28;19908;-56
2020/12/08 10:56:25;;;;;;;10.90;7.18;;;230.40;1587.20;;;;;;5072532;28;20037;-57
2020/12/08 10:58:52;;;;;;;12.52;7.78;;;230.40;1561.60;;;;;;5071933;28;20032;-59
2020/12/08 11:01:22;;;;;;;11.85;7.47;;;230.50;1561.60;;;;;;5074094;28;20082;-57
2020/12/08 11:03:48;;;;;;;15.07;7.57;;;230.60;1561.60;;;;;;5072295;28;20032;-58
2020/12/08 11:06:30;;;;;;;9.95;7.18;;;230.60;1536.00;;;;;;5072415;28;20032;-59
2020/12/08 11:08:56;;;;;;;10.88;7.18;;;230.70;1536.00;;;;;;5071731;28;20040;-58
2020/12/08 11:11:26;;;;;;;12.73;6.60;;;230.70;1536.00;;;;;;5072524;28;20021;-61
2020/12/08 11:13:53;;;;;;;11.07;6.90;;;230.60;1536.00;;;;;;5054712;28;20032;-59
2020/12/08 11:16:20;;;;;;;10.60;7.15;;;230.70;1536.00;;;;;;5072649;28;20580;-61
2020/12/08 11:18:47;;;;;;;16.20;6.93;;;230.70;1536.00;;;;;;5055375;28;20432;-61
2020/12/08 11:21:12;;;;;;;11.63;7.00;;;230.70;1536.00;;;;;;5053131;28;20135;-58
2020/12/08 11:23:40;;;;;;;9.93;6.22;;;230.80;1536.00;;;;;;5072061;28;20104;-57
2020/12/08 11:26:12;;;;;;;7.70;6.05;;;230.80;1536.00;;;;;;5068847;28;20047;-58
2020/12/08 11:28:38;;;;;;;9.45;5.93;;;230.80;1536.00;;;;;;5065474;28;20040;-60
2020/12/08 11:31:04;;;;;;;7.90;4.90;;;230.80;1536.00;;;;;;5070771;28;20339;-57
2020/12/08 11:33:30;;;;;;;9.23;6.35;;;230.80;1561.60;;;;;;5072419;28;20025;-58
2020/12/08 11:35:57;;;;;;;9.38;6.43;;;230.80;1536.00;;;;;;5072349;28;20024;-59
2020/12/08 11:38:22;;;;;;;9.35;6.38;;;230.80;1561.60;;;;;;5071357;28;20089;-60
2020/12/08 11:40:48;;;;;;;9.95;6.75;;;230.80;1536.00;;;;;;5071497;28;20478;-61
2020/12/08 11:43:14;;;;;;;11.25;6.82;;;230.80;1561.60;;;;;;5045071;28;20031;-61
2020/12/08 11:45:39;;;;;;;12.52;6.97;;;230.80;1561.60;;;;;;5069689;28;20054;-59
2020/12/08 11:48:05;;;;;;;9.20;6.55;;;230.90;1536.00;;;;;;5070435;28;20020;-62
2020/12/08 11:50:31;;;;;;;12.57;6.40;;;231.00;1536.00;;;;;;5070320;28;20082;-61
2020/12/08 11:52:56;;;;;;;10.48;6.50;;;231.00;1536.00;;;;;;5068372;28;20523;-57
2020/12/08 11:55:22;;;;;;;10.15;6.40;;;231.10;1536.00;;;;;;5066181;28;20099;-59
2020/12/08 11:57:48;;;;;;;9.40;5.80;;;231.20;1536.00;;;;;;5067641;28;20027;-57
2020/12/08 12:00:14;;;;;;;8.40;5.85;;;231.10;1561.60;;;;;;5068946;28;20332;-58
2020/12/08 12:02:40;;;;;;;10.93;7.47;;;231.20;1561.60;;;;;;5065383;28;20564;-56
2020/12/08 12:05:06;;;;;;;177.60;114.15;;;231.20;1536.00;;;;;;5071380;28;20048;-57
2020/12/08 12:07:32;;;;;;;33.75;23.08;;;256.00;1561.60;;;;;;5071221;28;20051;-59
2020/12/08 12:09:58;;;;;;;18.00;11.75;;;256.10;1561.60;;;;;;5071037;28;20059;-58
2020/12/08 12:12:24;;;;;;;15.07;10.57;;;256.30;1510.40;;;;;;5071636;28;20016;-58
2020/12/08 12:14:49;;;;;;;13.65;9.57;;;256.40;1484.80;;;;;;5070901;28;20153;-62
2020/12/08 12:17:15;;;;;;;179.50;113.53;;;256.50;1484.80;;;;;;5051715;28;20123;-59